Time;durP1;ratioP1;P1;durP2;ratioP2;P2;SDS_P1;SDS_P2;PMS_P1;PMS_P2;Temp;Humidity;BMP_temperature;BMP_pressure;BME280_temperature;BME280_humidity;BME280_pressure;Samples;Min_cycle;Max_cycle;Signal;HPM_P1;HPM_P2
2023/01/23 00:02:16;;;;;;;81.80;39.78;;;;;;;7.38;100.00;100146.88;5014750;28;20104;-73
2023/01/23 00:04:42;;;;;;;80.50;37.95;;;;;;;7.42;100.00;100140.44;5014543;28;20014;-73
2023/01/23 00:07:07;;;;;;;89.10;38.55;;;;;;;7.36;100.00;100138.00;5014504;28;20033;-73
2023/01/23 00:09:33;;;;;;;93.18;37.67;;;;;;;7.45;100.00;100153.75;5013088;28;20132;-73
2023/01/23 00:11:58;;;;;;;85.50;35.67;;;;;;;7.43;100.00;100138.50;5014362;28;20400;-73
2023/01/23 00:14:24;;;;;;;85.38;34.78;;;;;;;7.48;100.00;100152.34;5013013;28;20037;-73
2023/01/23 00:16:49;;;;;;;86.30;34.83;;;;;;;7.52;100.00;100156.16;5014174;28;20061;-73
2023/01/23 00:19:15;;;;;;;87.72;36.90;;;;;;;7.49;100.00;100158.75;5012904;28;20018;-73
2023/01/23 00:21:40;;;;;;;92.07;37.50;;;;;;;7.50;100.00;100152.84;5016710;28;20036;-73
2023/01/23 00:24:08;;;;;;;98.97;38.28;;;;;;;7.47;100.00;100149.84;5013942;28;20408;-73
2023/01/23 00:26:34;;;;;;;94.50;37.83;;;;;;;7.41;100.00;100152.69;5031438;28;20025;-73
2023/01/23 00:29:01;;;;;;;95.82;38.78;;;;;;;7.41;100.00;100149.91;5033830;28;20021;-73
2023/01/23 00:31:33;;;;;;;97.78;39.05;;;;;;;7.52;100.00;100149.78;5032665;28;20044;-73
2023/01/23 00:34:01;;;;;;;99.28;39.53;;;;;;;7.43;100.00;100150.44;5033794;28;20100;-73
2023/01/23 00:36:29;;;;;;;96.72;35.08;;;;;;;7.35;100.00;100145.53;5032721;28;20052;-73
2023/01/23 00:38:55;;;;;;;97.38;36.88;;;;;;;7.29;100.00;100147.53;5033595;28;20045;-73
2023/01/23 00:41:21;;;;;;;90.50;40.53;;;;;;;7.56;100.00;100146.13;5015591;28;20022;-73
2023/01/23 00:43:47;;;;;;;94.35;39.67;;;;;;;7.51;100.00;100148.94;5013832;28;20036;-73
2023/01/23 00:46:13;;;;;;;96.45;37.40;;;;;;;7.55;100.00;100141.69;5013950;28;20041;-73
2023/01/23 00:48:39;;;;;;;92.55;40.10;;;;;;;7.54;100.00;100151.16;5022648;28;20028;-73
2023/01/23 00:51:04;;;;;;;92.80;38.97;;;;;;;7.65;100.00;100162.13;5031785;28;20037;-73
2023/01/23 00:53:30;;;;;;;99.65;39.78;;;;;;;7.59;100.00;100150.22;5033571;28;20098;-73
2023/01/23 00:55:55;;;;;;;101.88;39.45;;;;;;;7.61;100.00;100161.94;5032681;28;20021;-73
2023/01/23 00:58:21;;;;;;;91.50;37.65;;;;;;;7.68;100.00;100173.50;5033397;28;20033;-73
2023/01/23 01:00:46;;;;;;;94.30;37.40;;;;;;;7.66;100.00;100159.06;5033363;28;20495;-73
2023/01/23 01:03:12;;;;;;;120.40;37.78;;;;;;;7.74;100.00;100171.50;5031981;28;20112;-73
2023/01/23 01:05:37;;;;;;;88.22;36.60;;;;;;;7.80;100.00;100172.25;5022334;28;20036;-73
2023/01/23 01:08:04;;;;;;;106.82;40.25;;;;;;;7.71;100.00;100172.91;5013448;28;20026;-73
2023/01/23 01:10:31;;;;;;;96.20;40.20;;;;;;;7.78;100.00;100174.50;5013236;28;20101;-73
2023/01/23 01:12:59;;;;;;;108.05;39.00;;;;;;;7.76;100.00;100172.00;5014318;28;20064;-73
2023/01/23 01:15:25;;;;;;;113.40;40.47;;;;;;;7.78;100.00;100174.50;5011836;28;20033;-73
2023/01/23 01:17:54;;;;;;;110.43;40.85;;;;;;;7.67;100.00;100171.03;5015369;28;20031;-73
2023/01/23 01:20:24;;;;;;;119.18;42.65;;;;;;;7.76;100.00;100171.19;5024933;28;20033;-73
2023/01/23 01:22:54;;;;;;;118.03;43.17;;;;;;;7.83;100.00;100178.06;5032692;28;20411;-72
2023/01/23 01:25:20;;;;;;;112.20;43.53;;;;;;;7.75;100.00;100177.91;5025899;28;20065;-73
2023/01/23 01:27:45;;;;;;;99.25;41.45;;;;;;;7.71;100.00;100172.91;5012813;28;20045;-73
2023/01/23 01:30:12;;;;;;;105.10;41.42;;;;;;;7.67;100.00;100177.44;5012973;28;20030;-73
2023/01/23 01:32:39;;;;;;;109.07;43.38;;;;;;;7.76;100.00;100187.91;5032186;28;20027;-73
2023/01/23 01:35:05;;;;;;;97.80;41.85;;;;;;;7.74;100.00;100185.41;5032157;28;20486;-73
2023/01/23 01:37:35;;;;;;;108.15;42.70;;;;;;;7.76;100.00;100179.56;5032173;28;20029;-73
2023/01/23 01:40:02;;;;;;;105.50;42.60;;;;;;;7.77;100.00;100186.78;5023835;28;20030;-73
2023/01/23 01:42:27;;;;;;;109.72;42.78;;;;;;;7.81;100.00;100182.25;5012383;28;20029;-73
2023/01/23 01:44:58;;;;;;;95.13;42.47;;;;;;;7.72;100.00;100191.31;5012630;28;20030;-73
2023/01/23 01:47:24;;;;;;;106.03;41.10;;;;;;;7.79;100.00;100192.88;5012651;28;20033;-73
2023/01/23 01:49:54;;;;;;;95.80;41.20;;;;;;;7.73;100.00;100175.41;5030605;28;20501;-73
2023/01/23 01:52:22;;;;;;;94.73;40.63;;;;;;;7.83;100.00;100186.41;5013642;28;20026;-73
2023/01/23 01:54:52;;;;;;;92.65;39.35;;;;;;;7.85;100.00;100183.34;5013997;28;20026;-73
2023/01/23 01:57:22;;;;;;;89.82;40.45;;;;;;;7.83;100.00;100191.16;5032350;28;20092;-73
2023/01/23 02:00:07;;;;;;;96.18;41.40;;;;;;;7.83;100.00;100188.34;5032085;28;20482;-73
2023/01/23 02:02:38;;;;;;;96.95;40.90;;;;;;;7.94;100.00;100198.22;5030822;28;20071;-73
2023/01/23 02:05:11;;;;;;;99.30;42.10;;;;;;;7.85;100.00;100188.91;5032024;28;20033;-73
2023/01/23 02:07:46;;;;;;;81.53;38.30;;;;;;;7.80;100.00;100184.25;5032023;28;20056;-73
2023/01/23 02:10:13;;;;;;;94.35;38.30;;;;;;;7.78;100.00;100174.50;5031192;28;20025;-73
2023/01/23 02:12:38;;;;;;;79.88;36.00;;;;;;;7.79;100.00;100173.38;5031994;28;20061;-73
2023/01/23 02:15:06;;;;;;;85.68;33.92;;;;;;;7.88;100.00;100191.09;5031754;28;20097;-72
2023/01/23 02:17:35;;;;;;;81.88;37.13;;;;;;;7.81;100.00;100197.03;5032042;28;20128;-73
2023/01/23 02:20:22;;;;;;;84.28;33.75;;;;;;;7.75;100.00;100183.47;5031368;28;20511;-73
2023/01/23 02:23:43;;;;;;;69.35;33.20;;;;;;;7.78;100.00;100188.44;5012089;28;20033;-73
2023/01/23 02:26:14;;;;;;;77.68;34.88;;;;;;;7.82;100.00;100190.34;5025067;28;20099;-73
2023/01/23 02:28:45;;;;;;;75.38;31.40;;;;;;;7.77;100.00;100186.78;5031708;28;20086;-73
2023/01/23 02:31:13;;;;;;;78.28;34.83;;;;;;;7.76;100.00;100185.13;5031486;28;20458;-73
2023/01/23 02:33:38;;;;;;;83.55;35.95;;;;;;;7.71;100.00;100186.84;5031535;28;20029;-73
2023/01/23 02:36:07;;;;;;;80.22;33.47;;;;;;;7.66;100.00;100188.84;5031308;28;20183;-72
2023/01/23 02:38:36;;;;;;;81.75;34.60;;;;;;;7.67;100.00;100194.13;5043083;28;20416;-73
2023/01/23 02:41:08;;;;;;;85.22;36.45;;;;;;;7.72;100.00;100201.59;5011651;28;20040;-73
2023/01/23 02:43:36;;;;;;;84.80;35.72;;;;;;;7.62;100.00;100187.81;5012870;28;20029;-73
2023/01/23 02:46:03;;;;;;;68.05;31.90;;;;;;;7.59;100.00;100192.00;5011691;28;20480;-73
2023/01/23 02:48:29;;;;;;;83.13;36.15;;;;;;;7.67;100.00;100205.28;5018073;28;20037;-73
2023/01/23 02:50:54;;;;;;;81.53;35.30;;;;;;;7.68;100.00;100194.97;5028772;28;20027;-73
2023/01/23 02:53:20;;;;;;;77.68;33.25;;;;;;;7.56;100.00;100190.66;5031209;28;20083;-73
2023/01/23 02:55:45;;;;;;;70.35;32.88;;;;;;;7.59;100.00;100192.84;5030221;28;20087;-73
2023/01/23 03:00:55;;;;;;;71.95;34.05;;;;;;;7.73;100.00;100197.69;5031212;28;20575;-73
2023/01/23 03:03:21;;;;;;;71.72;30.13;;;;;;;7.63;100.00;100207.00;5031190;28;20105;-73
2023/01/23 03:05:47;;;;;;;67.43;30.88;;;;;;;7.65;100.00;100207.53;5031013;28;20060;-73
2023/01/23 03:08:12;;;;;;;68.55;32.08;;;;;;;7.73;100.00;100209.66;5029802;28;20053;-73
2023/01/23 03:10:38;;;;;;;71.53;30.02;;;;;;;7.69;100.00;100197.44;5025188;28;20034;-73
2023/01/23 03:13:06;;;;;;;67.38;29.90;;;;;;;7.69;100.00;100193.84;5011333;28;20034;-73
2023/01/23 03:15:33;;;;;;;54.03;24.35;;;;;;;7.63;100.00;100198.66;5011148;28;20046;-73
2023/01/23 03:17:59;;;;;;;58.88;26.08;;;;;;;7.67;100.00;100208.06;5029506;28;20103;-73
2023/01/23 03:20:25;;;;;;;66.30;28.00;;;;;;;7.71;100.00;100197.97;5029545;28;20188;-73
2023/01/23 03:22:52;;;;;;;60.38;29.60;;;;;;;7.78;100.00;100199.56;5011144;28;20022;-73
2023/01/23 03:25:18;;;;;;;61.00;29.15;;;;;;;7.77;100.00;100203.50;5016238;28;20018;-73
2023/01/23 03:27:43;;;;;;;57.22;27.75;;;;;;;7.77;100.00;100195.94;5029641;28;20381;-73
2023/01/23 03:30:14;;;;;;;61.90;26.00;;;;;;;7.71;100.00;100211.09;5030759;28;20499;-73
2023/01/23 03:32:41;;;;;;;52.50;27.15;;;;;;;7.71;100.00;100195.19;5030771;28;20481;-73
2023/01/23 03:35:15;;;;;;;50.22;25.95;;;;;;;7.75;100.00;100197.41;5030860;28;20514;-73
2023/01/23 03:37:42;;;;;;;47.42;23.88;;;;;;;7.80;100.00;100197.31;5030939;28;20029;-73
2023/01/23 03:42:59;;;;;;;61.17;24.55;;;;;;;7.76;100.00;100202.66;5018329;28;20080;-73
2023/01/23 03:45:25;;;;;;;54.92;28.00;;;;;;;7.73;100.00;100197.69;5030746;28;20503;-73
2023/01/23 03:47:50;;;;;;;58.70;27.10;;;;;;;7.68;100.00;100192.19;5030075;28;20025;-73
2023/01/23 03:50:16;;;;;;;62.63;27.45;;;;;;;7.76;100.00;100204.63;5029144;28;20022;-73
2023/01/23 03:52:41;;;;;;;67.22;26.80;;;;;;;7.67;100.00;100207.25;5029357;28;20056;-73
2023/01/23 03:55:07;;;;;;;54.83;26.50;;;;;;;7.58;100.00;100201.47;5028662;28;20029;-72
2023/01/23 03:57:33;;;;;;;60.30;26.17;;;;;;;7.61;100.00;100206.47;5030636;28;20032;-73
2023/01/23 03:59:58;;;;;;;54.72;25.90;;;;;;;7.59;100.00;100195.63;5030663;28;20017;-73
2023/01/23 04:02:24;;;;;;;63.20;25.75;;;;;;;7.61;100.00;100200.91;5032107;28;20021;-73
2023/01/23 04:04:49;;;;;;;56.70;27.83;;;;;;;7.62;100.00;100196.16;5034287;28;20489;-73
2023/01/23 04:07:14;;;;;;;64.05;28.80;;;;;;;7.51;100.00;100201.03;5034329;28;20545;-73
2023/01/23 04:09:40;;;;;;;57.38;24.98;;;;;;;7.57;100.00;100199.81;5034469;28;20458;-73
2023/01/23 04:12:05;;;;;;;57.50;25.98;;;;;;;7.52;100.00;100203.50;5034069;28;20430;-73
2023/01/23 04:14:36;;;;;;;53.53;25.77;;;;;;;7.50;100.00;100200.19;5033529;28;20025;-73
2023/01/23 04:17:01;;;;;;;;;;;;;;;7.54;100.00;100211.56;5032875;28;20053;-73
2023/01/23 04:19:27;;;;;;;64.55;27.67;;;;;;;7.51;100.00;100220.50;5034091;28;20055;-73
2023/01/23 04:21:52;;;;;;;63.13;27.08;;;;;;;7.51;100.00;100203.81;5033245;28;20032;-73
2023/01/23 04:24:17;;;;;;;62.60;26.98;;;;;;;7.50;100.00;100208.53;5034115;28;20464;-73
2023/01/23 04:26:44;;;;;;;59.10;25.23;;;;;;;7.52;100.00;100197.13;5017873;28;20550;-73
2023/01/23 04:29:09;;;;;;;53.88;25.02;;;;;;;7.53;100.00;100209.91;5014824;28;20097;-73
2023/01/23 04:31:35;;;;;;;58.35;28.27;;;;;;;7.59;100.00;100217.06;5013155;28;20551;-73
2023/01/23 04:34:00;;;;;;;50.80;25.40;;;;;;;7.53;100.00;100221.84;5013170;28;20022;-73
2023/01/23 04:36:26;;;;;;;39.30;17.50;;;;;;;7.43;100.00;100222.81;5014383;28;20049;-73
2023/01/23 04:38:51;;;;;;;47.20;23.50;;;;;;;7.54;100.00;100225.47;5014477;28;20022;-73
2023/01/23 04:41:20;;;;;;;51.72;24.23;;;;;;;7.46;100.00;100235.31;5013060;28;20396;-73
2023/01/23 04:43:45;;;;;;;53.83;26.60;;;;;;;7.45;100.00;100220.56;5014128;28;20022;-72
2023/01/23 04:46:11;;;;;;;58.33;26.05;;;;;;;7.49;100.00;100229.16;5014095;28;20026;-73
2023/01/23 04:48:36;;;;;;;50.67;26.40;;;;;;;7.36;100.00;100233.47;5014227;28;20176;-73
2023/01/23 04:51:02;;;;;;;56.25;27.10;;;;;;;7.35;100.00;100240.16;5015363;28;20025;-73
2023/01/23 04:53:27;;;;;;;59.20;28.00;;;;;;;7.28;100.00;100239.69;5012795;28;20022;-73
2023/01/23 04:55:53;;;;;;;88.85;29.00;;;;;;;7.25;100.00;100248.63;5022936;28;20033;-73
2023/01/23 04:58:18;;;;;;;62.55;27.77;;;;;;;7.15;100.00;100250.38;5032510;28;20025;-73
2023/01/23 05:00:44;;;;;;;56.47;27.92;;;;;;;7.21;100.00;100247.53;5033836;28;20060;-73
2023/01/23 05:03:10;;;;;;;66.57;27.55;;;;;;;7.21;100.00;100250.31;5033721;28;20079;-73
2023/01/23 05:05:35;;;;;;;59.90;27.20;;;;;;;7.15;100.00;100264.28;5033903;28;20026;-73
2023/01/23 05:08:01;;;;;;;59.08;25.50;;;;;;;7.06;100.00;100259.63;5033686;28;20439;-72
2023/01/23 05:10:26;;;;;;;60.33;25.65;;;;;;;7.07;100.00;100250.19;5032008;28;20116;-72
2023/01/23 05:12:52;;;;;;;62.70;28.02;;;;;;;7.06;100.00;100256.84;5032969;28;20036;-72
2023/01/23 05:15:19;;;;;;;58.88;25.85;;;;;;;7.08;100.00;100277.69;5032628;28;20408;-72
2023/01/23 05:17:46;;;;;;;60.63;25.85;;;;;;;7.01;100.00;100272.47;5013389;28;20570;-73
2023/01/23 05:20:11;;;;;;;55.63;27.15;;;;;;;7.07;100.00;100292.72;5013767;28;20385;-72
2023/01/23 05:22:37;;;;;;;57.20;29.17;;;;;;;7.02;100.00;100288.03;5029118;28;20033;-72
2023/01/23 05:25:02;;;;;;;47.45;23.55;;;;;;;6.97;100.00;100301.16;5032217;28;20103;-72
2023/01/23 05:27:28;;;;;;;55.85;25.80;;;;;;;7.00;100.00;100287.50;5033257;28;20025;-73
2023/01/23 05:29:53;;;;;;;54.90;25.25;;;;;;;7.00;100.00;100298.63;5028571;28;20032;-72
2023/01/23 05:32:19;;;;;;;62.95;28.13;;;;;;;6.91;100.00;100291.22;5013558;28;20072;-73
2023/01/23 05:34:44;;;;;;;54.47;22.27;;;;;;;6.95;100.00;100300.63;5012302;28;20087;-73
2023/01/23 05:37:10;;;;;;;64.70;27.77;;;;;;;7.00;100.00;100308.94;5013525;28;20377;-73
2023/01/23 05:39:35;;;;;;;73.25;28.10;;;;;;;6.92;100.00;100306.78;5013305;28;20061;-73
2023/01/23 05:42:01;;;;;;;59.45;27.35;;;;;;;6.95;100.00;100317.31;5025751;28;20482;-73
2023/01/23 05:44:27;;;;;;;60.58;26.23;;;;;;;7.01;100.00;100316.16;5018558;28;20481;-73
2023/01/23 05:46:52;;;;;;;58.15;28.10;;;;;;;6.96;100.00;100330.94;5012544;28;20033;-71
2023/01/23 05:49:18;;;;;;;61.45;29.35;;;;;;;6.99;100.00;100324.78;5013214;28;20109;-72
2023/01/23 05:51:43;;;;;;;63.53;30.98;;;;;;;6.98;100.00;100334.25;5024445;28;20025;-72
2023/01/23 05:54:09;;;;;;;70.03;28.92;;;;;;;6.94;100.00;100338.75;5032636;28;20100;-72
2023/01/23 05:56:35;;;;;;;65.38;27.98;;;;;;;6.88;100.00;100346.28;5031297;28;20553;-73
2023/01/23 05:59:00;;;;;;;65.32;30.80;;;;;;;6.93;100.00;100353.75;5032660;28;20022;-72
2023/01/23 06:01:26;;;;;;;60.92;28.52;;;;;;;6.95;100.00;100353.47;5027903;28;20029;-71
2023/01/23 06:03:51;;;;;;;70.35;27.65;;;;;;;6.86;100.00;100359.63;5049255;28;20111;-70
2023/01/23 06:06:16;;;;;;;64.80;29.50;;;;;;;6.85;100.00;100366.31;5047501;28;20365;-71
2023/01/23 06:08:42;;;;;;;58.75;26.95;;;;;;;6.79;100.00;100361.94;5019412;28;20105;-71
2023/01/23 06:11:08;;;;;;;71.00;26.27;;;;;;;6.79;100.00;100358.31;5021859;28;20033;-70
2023/01/23 06:13:33;;;;;;;55.30;25.35;;;;;;;6.76;100.00;100364.44;5033422;28;20086;-71
2023/01/23 06:15:58;;;;;;;53.25;26.08;;;;;;;6.73;100.00;100363.06;5021717;28;20046;-70
2023/01/23 06:18:24;;;;;;;58.65;27.13;;;;;;;6.65;100.00;100356.16;5031792;28;20021;-70
2023/01/23 06:20:55;;;;;;;57.45;27.08;;;;;;;6.65;100.00;100356.16;5026666;28;20028;-71
2023/01/23 06:23:21;;;;;;;55.47;28.27;;;;;;;6.62;100.00;100364.25;5023620;28;20053;-69
2023/01/23 06:25:46;;;;;;;75.43;28.35;;;;;;;6.63;100.00;100380.63;5020369;28;20851;-70
2023/01/23 06:28:11;;;;;;;56.95;28.52;;;;;;;6.63;100.00;100365.91;5013189;28;20030;-70
2023/01/23 06:30:37;;;;;;;66.85;28.63;;;;;;;6.62;100.00;100378.97;5016822;28;20030;-70
2023/01/23 06:33:02;;;;;;;80.78;27.67;;;;;;;6.65;100.00;100386.75;5027253;28;20025;-70
2023/01/23 06:35:28;;;;;;;57.28;23.73;;;;;;;6.57;100.00;100385.41;5020270;28;20484;-70
2023/01/23 06:37:53;;;;;;;63.60;26.02;;;;;;;6.58;100.00;100400.13;5024738;28;20500;-72
2023/01/23 06:40:19;;;;;;;56.35;27.83;;;;;;;6.56;100.00;100396.78;5027380;28;20025;-73
2023/01/23 06:42:44;;;;;;;67.18;28.20;;;;;;;6.64;100.00;100412.06;5027216;28;20029;-70
2023/01/23 06:45:10;;;;;;;64.75;28.60;;;;;;;6.59;100.00;100415.69;5017061;28;20041;-73
2023/01/23 06:47:36;;;;;;;57.85;26.88;;;;;;;6.69;100.00;100420.38;5008683;28;20037;-71
2023/01/23 06:50:02;;;;;;;69.47;29.60;;;;;;;6.64;100.00;100412.88;5021915;28;20033;-73
2023/01/23 06:52:28;;;;;;;57.78;26.10;;;;;;;6.65;100.00;100420.09;5026820;28;20395;-73
2023/01/23 06:54:53;;;;;;;58.55;25.15;;;;;;;6.62;100.00;100415.13;5008402;28;20046;-72
2023/01/23 06:57:19;;;;;;;71.40;26.90;;;;;;;6.66;100.00;100420.94;5021972;28;20116;-70
2023/01/23 06:59:45;;;;;;;57.90;26.42;;;;;;;6.67;100.00;100408.72;5021829;28;20415;-69
2023/01/23 07:02:11;;;;;;;65.35;28.00;;;;;;;6.65;100.00;100416.50;5019944;28;20021;-68
2023/01/23 07:04:37;;;;;;;59.10;26.20;;;;;;;6.63;100.00;100421.50;5024179;28;20049;-71
2023/01/23 07:07:02;;;;;;;76.47;29.33;;;;;;;6.60;100.00;100414.59;5026268;28;20128;-72
2023/01/23 07:09:28;;;;;;;53.45;24.75;;;;;;;6.63;100.00;100415.94;5017066;28;20060;-71
2023/01/23 07:11:53;;;;;;;59.80;26.80;;;;;;;6.69;100.00;100420.38;5028783;28;20042;-72
2023/01/23 07:14:19;;;;;;;54.67;25.83;;;;;;;6.60;100.00;100429.28;5028098;28;20030;-73
2023/01/23 07:16:44;;;;;;;52.05;24.77;;;;;;;6.67;100.00;100433.72;5026361;28;20053;-71
2023/01/23 07:19:10;;;;;;;56.35;27.70;;;;;;;6.65;100.00;100422.06;5027654;28;20040;-71
2023/01/23 07:21:35;;;;;;;51.03;24.83;;;;;;;6.68;100.00;100425.09;5018252;28;20045;-72
2023/01/23 07:24:01;;;;;;;71.35;25.08;;;;;;;6.70;100.00;100416.47;5022344;28;20025;-70
2023/01/23 07:26:26;;;;;;;50.67;22.35;;;;;;;6.71;100.00;100415.34;5028170;28;20116;-73
2023/01/23 07:28:52;;;;;;;57.63;26.40;;;;;;;6.67;100.00;100403.16;5022650;28;20116;-71
2023/01/23 07:31:18;;;;;;;58.08;24.88;;;;;;;6.63;100.00;100421.50;5018671;28;20033;-74
2023/01/23 07:33:44;;;;;;;58.55;24.25;;;;;;;6.64;100.00;100437.91;5012293;28;20049;-72
2023/01/23 07:36:12;;;;;;;68.95;27.15;;;;;;;6.77;100.00;100443.97;5020763;28;20456;-73
2023/01/23 07:38:38;;;;;;;63.85;30.00;;;;;;;6.77;100.00;100442.03;5023374;28;20456;-70
2023/01/23 07:41:03;;;;;;;71.03;26.98;;;;;;;6.75;100.00;100441.47;5024602;28;20025;-71
2023/01/23 07:43:29;;;;;;;64.78;28.58;;;;;;;6.84;100.00;100439.75;5024484;28;20030;-69
2023/01/23 07:46:00;;;;;;;56.58;24.83;;;;;;;6.87;100.00;100447.50;5012835;28;20099;-72
2023/01/23 07:48:25;;;;;;;57.13;27.23;;;;;;;6.87;100.00;100447.50;5013551;28;20087;-74
2023/01/23 07:50:51;;;;;;;62.33;25.67;;;;;;;6.84;100.00;100445.31;5012606;28;20042;-72
2023/01/23 07:53:16;;;;;;;71.65;26.60;;;;;;;6.86;100.00;100453.38;5013105;28;20026;-72
2023/01/23 07:55:42;;;;;;;64.70;29.20;;;;;;;6.97;100.00;100455.00;5013272;28;20061;-72
2023/01/23 07:58:07;;;;;;;64.05;26.67;;;;;;;6.87;100.00;100441.13;5011441;28;20033;-72
2023/01/23 08:00:33;;;;;;;59.95;27.05;;;;;;;7.02;100.00;100445.78;5013864;28;20029;-73
2023/01/23 08:02:58;;;;;;;60.35;28.02;;;;;;;7.01;100.00;100444.13;5011827;28;20452;-74
2023/01/23 08:05:24;;;;;;;55.25;24.70;;;;;;;7.05;100.00;100458.28;5027233;28;20037;-74
2023/01/23 08:07:49;;;;;;;51.80;26.77;;;;;;;6.94;100.00;100451.94;5032858;28;20032;-74
2023/01/23 08:10:15;;;;;;;56.53;26.23;;;;;;;6.95;100.00;100461.94;5032414;28;20029;-76
2023/01/23 08:12:41;;;;;;;67.82;29.40;;;;;;;7.06;100.00;100468.28;5032131;28;20032;-74
2023/01/23 08:15:07;;;;;;;53.90;25.23;;;;;;;6.99;100.00;100460.25;5030863;28;20029;-74
2023/01/23 08:17:32;;;;;;;46.78;24.67;;;;;;;7.05;100.00;100461.06;5031489;28;20065;-76
2023/01/23 08:19:57;;;;;;;63.92;28.58;;;;;;;6.95;100.00;100450.81;5032340;28;20026;-73
2023/01/23 08:22:23;;;;;;;55.45;24.95;;;;;;;6.86;100.00;100451.41;5032056;28;20037;-73
2023/01/23 08:24:48;;;;;;;52.70;26.08;;;;;;;6.98;100.00;100455.81;5030928;28;20056;-75
2023/01/23 08:27:14;;;;;;;59.63;27.60;;;;;;;7.00;100.00;100459.16;5029307;28;20033;-74
2023/01/23 08:29:39;;;;;;;50.28;24.92;;;;;;;7.00;100.00;100456.38;5018209;28;20076;-73
2023/01/23 08:32:05;;;;;;;54.88;25.77;;;;;;;6.96;100.00;100455.25;5030071;28;20460;-74
2023/01/23 08:34:31;;;;;;;58.85;27.60;;;;;;;6.99;100.00;100455.53;5025925;28;20064;-75
2023/01/23 08:36:56;;;;;;;45.00;24.02;;;;;;;6.98;100.00;100453.88;5030909;28;20099;-72
2023/01/23 08:39:23;;;;;;;51.00;27.10;;;;;;;7.10;100.00;100459.06;5030190;28;20060;-75
2023/01/23 08:41:49;;;;;;;55.47;28.60;;;;;;;7.16;100.00;100457.94;5030207;28;20021;-73
2023/01/23 08:44:15;;;;;;;57.75;26.65;;;;;;;7.16;100.00;100454.31;5019681;28;20126;-77
2023/01/23 08:46:41;;;;;;;48.85;24.98;;;;;;;7.04;100.00;100457.44;5024044;28;20500;-73
2023/01/23 08:49:07;;;;;;;51.53;26.05;;;;;;;7.00;100.00;100448.84;5031327;28;20491;-77
2023/01/23 08:51:32;;;;;;;57.42;24.77;;;;;;;7.05;100.00;100450.78;5031306;28;20045;-73
2023/01/23 08:53:58;;;;;;;57.50;25.85;;;;;;;7.13;100.00;100441.81;5028427;28;20033;-77
2023/01/23 08:56:24;;;;;;;53.53;25.85;;;;;;;7.16;100.00;100455.16;5032064;28;20226;-76
2023/01/23 08:58:50;;;;;;;51.88;25.35;;;;;;;7.14;100.00;100453.78;5029922;28;20064;-74
2023/01/23 09:01:18;;;;;;;67.28;28.63;;;;;;;7.23;100.00;100462.34;5021309;28;20049;-74
2023/01/23 09:03:44;;;;;;;56.65;24.33;;;;;;;7.10;100.00;100456.28;5019932;28;20547;-76
2023/01/23 09:06:15;;;;;;;57.47;25.38;;;;;;;7.12;100.00;100461.56;5029028;28;20060;-74
2023/01/23 09:08:41;;;;;;;39.78;22.52;;;;;;;7.04;100.00;100454.66;5029063;28;20345;-74
2023/01/23 09:11:09;;;;;;;51.00;25.00;;;;;;;7.03;100.00;100458.56;5027533;28;20093;-74
2023/01/23 09:13:35;;;;;;;54.00;24.73;;;;;;;7.14;100.00;100465.75;5014766;28;20088;-73
2023/01/23 09:16:01;;;;;;;51.45;25.35;;;;;;;7.05;100.00;100458.28;5024113;28;20587;-71
2023/01/23 09:18:27;;;;;;;55.42;25.55;;;;;;;6.98;100.00;100456.66;5029001;28;20041;-70
2023/01/23 09:20:53;;;;;;;54.45;24.52;;;;;;;7.19;100.00;100455.69;5021915;28;20037;-72
2023/01/23 09:23:19;;;;;;;48.97;22.65;;;;;;;7.05;100.00;100445.22;5040294;28;20055;-70
2023/01/23 09:25:45;;;;;;;47.08;23.63;;;;;;;7.03;100.00;100441.88;5014228;28;20165;-74
2023/01/23 09:28:10;;;;;;;56.20;25.17;;;;;;;7.16;100.00;100452.38;5011325;28;20049;-73
2023/01/23 09:30:36;;;;;;;44.97;24.20;;;;;;;7.08;100.00;100449.38;5030639;28;20036;-72
2023/01/23 09:33:02;;;;;;;54.60;25.27;;;;;;;7.14;100.00;100449.06;5030670;28;20110;-76
2023/01/23 09:35:28;;;;;;;58.38;28.15;;;;;;;7.09;100.00;100443.50;5031278;28;20480;-73
2023/01/23 09:37:59;;;;;;;50.90;24.42;;;;;;;7.21;100.00;100457.06;5015057;28;20169;-72
2023/01/23 09:40:48;;;;;;;64.70;25.50;;;;;;;7.13;100.00;100444.59;5019896;28;20032;-74
2023/01/23 09:43:20;;;;;;;64.60;26.35;;;;;;;7.12;100.00;100448.50;5021771;28;20544;-73
2023/01/23 09:46:03;;;;;;;53.38;25.88;;;;;;;7.18;100.00;100457.66;5018843;28;20510;-77
2023/01/23 09:48:43;;;;;;;57.28;25.40;;;;;;;7.16;100.00;100457.94;5026363;28;20504;-73
2023/01/23 09:51:14;;;;;;;;;;;;;;;7.14;100.00;100451.00;5018645;28;20041;-76
2023/01/23 09:53:41;;;;;;;56.55;25.77;;;;;;;7.18;100.00;100456.81;5021994;28;19923;-72
2023/01/23 09:56:37;;;;;;;52.53;26.67;;;;;;;7.20;100.00;100447.06;5021821;28;20041;-71
2023/01/23 09:59:27;;;;;;;65.03;24.67;;;;;;;7.23;100.00;100440.91;5021256;28;20108;-72
2023/01/23 10:01:53;;;;;;;55.85;27.05;;;;;;;7.32;100.00;100438.34;5029802;28;20043;-70
2023/01/23 10:04:19;;;;;;;53.67;26.55;;;;;;;7.26;100.00;100451.47;5024107;28;20389;-71
2023/01/23 10:07:11;;;;;;;62.55;27.40;;;;;;;7.28;100.00;100448.41;5020014;28;20454;-70
2023/01/23 10:09:52;;;;;;;51.30;25.92;;;;;;;7.33;100.00;100439.19;5023325;28;20057;-73
2023/01/23 10:12:20;;;;;;;60.72;26.23;;;;;;;7.31;100.00;100442.25;5013770;28;20039;-74
2023/01/23 10:15:18;;;;;;;47.78;25.58;;;;;;;7.33;100.00;100442.78;5014727;28;20105;-74
2023/01/23 10:18:09;;;;;;;49.92;24.85;;;;;;;7.34;100.00;100446.41;5043631;28;20046;-72
2023/01/23 10:20:54;;;;;;;52.42;25.13;;;;;;;7.30;100.00;100440.59;5021097;28;20048;-72
2023/01/23 10:23:22;;;;;;;56.58;27.02;;;;;;;7.30;100.00;100435.88;5022019;28;20025;-71
2023/01/23 10:25:48;;;;;;;53.70;26.50;;;;;;;7.29;100.00;100427.81;5029285;28;20029;-73
2023/01/23 10:28:14;;;;;;;56.38;26.83;;;;;;;7.36;100.00;100424.69;5029708;28;20056;-72
2023/01/23 10:30:41;;;;;;;55.22;27.23;;;;;;;7.48;100.00;100410.38;5027302;28;20039;-71
2023/01/23 10:33:17;;;;;;;51.92;26.92;;;;;;;7.52;100.00;100415.06;5029708;28;20021;-71
2023/01/23 10:35:50;;;;;;;47.30;23.13;;;;;;;7.39;100.00;100424.94;5020131;28;20044;-73
2023/01/23 10:38:21;;;;;;;47.47;23.25;;;;;;;7.48;100.00;100422.34;5023299;28;20500;-71
2023/01/23 10:43:31;;;;;;;74.45;23.42;;;;;;;7.48;100.00;100418.72;5023379;28;20037;-71
2023/01/23 10:45:57;;;;;;;47.55;24.23;;;;;;;7.45;100.00;100409.84;5012232;28;20025;-71
2023/01/23 10:48:31;;;;;;;50.47;24.88;;;;;;;7.56;100.00;100418.13;5013924;28;20107;-71
2023/01/23 10:50:57;;;;;;;55.47;25.13;;;;;;;7.60;100.00;100416.41;5015776;28;20131;-71
2023/01/23 10:53:24;;;;;;;47.88;23.80;;;;;;;7.57;100.00;100422.56;5031357;28;20499;-71
2023/01/23 10:55:54;;;;;;;46.42;25.55;;;;;;;7.59;100.00;100414.75;5029660;28;20033;-71
2023/01/23 10:58:32;;;;;;;47.75;21.67;;;;;;;7.48;100.00;100413.16;5016894;28;20052;-71
2023/01/23 11:00:59;;;;;;;52.28;22.80;;;;;;;7.58;100.00;100413.09;5022582;28;20026;-71
2023/01/23 11:03:33;;;;;;;44.90;22.63;;;;;;;7.48;100.00;100399.25;5012841;28;20028;-71
2023/01/23 11:06:08;;;;;;;43.25;22.42;;;;;;;7.49;100.00;100412.06;5017073;28;20025;-71
2023/01/23 11:08:39;;;;;;;39.63;21.58;;;;;;;7.41;100.00;100402.38;5014118;28;20026;-71
2023/01/23 11:11:29;;;;;;;42.80;19.45;;;;;;;7.55;100.00;100410.88;5023628;28;20033;-70
2023/01/23 11:14:11;;;;;;;37.97;21.63;;;;;;;7.54;100.00;100406.44;5027036;28;20033;-71
2023/01/23 11:16:37;;;;;;;41.00;21.45;;;;;;;7.49;100.00;100398.16;5023664;28;20086;-71
2023/01/23 11:19:08;;;;;;;39.92;21.67;;;;;;;7.55;100.00;100402.53;5021636;28;20046;-70
2023/01/23 11:21:35;;;;;;;43.90;21.55;;;;;;;7.49;100.00;100393.41;5028140;28;20029;-70